Alliance, NE

8:41 AM MDT on October 24, 2014 (GMT -0600)
Alliance Municipal | Change Station
CLOSE
Current Station
Airport
Location: Alliance,
Elevation: 3930 ft
Nearby Weather Stations

Elev 3930 ft 42.06 °N, 102.80 °W | Updated 48 minutes ago

Clear
Clear
50 °F
Feels Like 50 °F
N
10
Wind Variable Wind from West

Today
High -- | Low -- °F
--% Chance of Precip.
Yesterday
High -- | Low -- °F
Precip. -- in
7:14 AM 5:56 PM
New Moon, 1% visible
Pressure 30.01 in
Visibility 10.0 miles
Clouds Clear
Dew Point 36 °F
Humidity 59%
Rainfall 0.00 in
Snow Depth Not available.
UV 0 out of 12
Pollen 2.70 out of 12
Air Quality Not available.
Flu Activity Sporadic
METAR KAIA 241353Z AUTO 27009KT 10SM CLR 10/02 A3003 RMK AO2 SLP162 T01000022 $

More Conditions Fewer Conditions

Pressure 30.01 in
Visibility 10.0 miles
Clouds Clear
Dew Point 36 °F
Humidity 59%
Rainfall 0.00 in
Snow Depth Not available.
UV 0 out of 12
Pollen 2.70 out of 12
Air Quality Not available.
Flu Activity Sporadic
METAR KAIA 241353Z AUTO 27009KT 10SM CLR 10/02 A3003 RMK AO2 SLP162 T01000022 $

More Conditions Fewer Conditions

10-Day Weather Forecast

Almanac

Astronomy

Oct. 24, 2014 Rise Set
Actual Time 7:14 AM MDT 5:56 PM MDT
Civil Twilight 6:46 AM MDT 6:24 PM MDT
Nautical Twilight 6:13 AM MDT 6:57 PM MDT
Astronomical Twilight 5:41 AM MDT 7:29 PM MDT
Moon 7:56 AM MDT 6:36 PM MDT
Length of Visible Light 11h 38m
Length of Day
10h 41m
Tomorrow will be 2m 38s shorter.
New Moon, 1% of the Moon is Illuminated
Today
New Moon
Oct 30
First Quarter
Nov 6
Full
Nov 14
Last Quarter
Nov 22
New

Today's Extremes

State Highs State Lows

Community

WunderPhotos

Upload Photos

1,764,581 photos uploaded!

WunderBlogs® & News

Nearby

Snow Depth

Station Depth Elevation
No new snow has been reported.

Earthquake Activity

City Distance Mag. Time & Date
No recent earthquake activity has been reported nearby.
Minimum magnitude displayed is 2.5.

Coastal Water Temperatures

Place Temperature
No Stations Reporting

Nearby Weather Stations